createdAt,value
2023-01-19T00:00:10.977Z,3.47
2023-01-19T00:05:15.033Z,3.53
2023-01-19T00:10:18.103Z,3.00
2023-01-19T00:15:20.756Z,2.03
2023-01-19T00:20:23.314Z,2.10
2023-01-19T00:25:25.891Z,2.08
2023-01-19T00:30:28.570Z,2.03
2023-01-19T00:35:31.177Z,1.52
2023-01-19T00:40:33.713Z,1.40
2023-01-19T00:45:36.620Z,1.70
2023-01-19T00:50:39.214Z,2.30
2023-01-19T00:55:41.836Z,1.67
2023-01-19T01:00:45.006Z,1.92
2023-01-19T01:05:47.584Z,2.50
2023-01-19T01:10:51.512Z,1.77
2023-01-19T01:15:55.182Z,2.22
2023-01-19T01:21:02.450Z,1.85
2023-01-19T01:26:05.855Z,2.40
2023-01-19T01:31:08.394Z,2.20
2023-01-19T01:36:12.203Z,3.33
2023-01-19T01:41:15.134Z,2.75
2023-01-19T01:46:18.462Z,2.10
2023-01-19T01:56:42.082Z,3.80
2023-01-19T02:02:04.695Z,1.77
2023-01-19T02:07:27.403Z,3.10
2023-01-19T02:12:49.905Z,3.13
2023-01-19T02:17:52.474Z,2.50
2023-01-19T02:22:57.396Z,2.60
2023-01-19T02:28:00.737Z,2.00
2023-01-19T02:33:03.875Z,2.17
2023-01-19T02:38:08.633Z,2.28
2023-01-19T02:43:11.489Z,2.95
2023-01-19T02:48:14.907Z,2.55
2023-01-19T03:19:41.133Z,2.58
2023-01-19T03:24:46.467Z,2.40
2023-01-19T03:29:54.067Z,4.43
2023-01-19T03:34:59.059Z,3.72
2023-01-19T03:40:01.720Z,5.82
2023-01-19T03:45:06.180Z,6.47
2023-01-19T03:50:15.273Z,5.68
2023-01-19T03:55:17.826Z,4.30
2023-01-19T04:00:20.592Z,5.50
2023-01-19T04:05:23.417Z,4.60
2023-01-19T04:10:26.026Z,4.43
2023-01-19T04:15:29.794Z,3.92
2023-01-19T04:20:33.992Z,4.03
2023-01-19T04:25:38.144Z,4.80
2023-01-19T04:30:41.627Z,4.07
2023-01-19T04:35:45.224Z,4.13
2023-01-19T04:40:49.550Z,4.18
2023-01-19T04:45:52.549Z,3.83
2023-01-19T04:50:55.230Z,3.55
2023-01-19T04:55:59.747Z,3.55
2023-01-19T05:01:02.285Z,4.55
2023-01-19T05:06:06.589Z,5.80
2023-01-19T05:11:09.151Z,6.05
2023-01-19T05:16:14.169Z,6.80
2023-01-19T05:21:16.805Z,6.75
2023-01-19T05:26:19.358Z,4.88
2023-01-19T05:31:24.798Z,4.38
2023-01-19T05:36:32.686Z,4.47
2023-01-19T05:41:35.942Z,3.67
2023-01-19T05:46:39.775Z,3.33
2023-01-19T05:51:45.722Z,3.28
2023-01-19T05:56:48.357Z,3.65
2023-01-19T06:01:52.278Z,4.38
2023-01-19T06:06:55.241Z,4.18
2023-01-19T06:11:59.699Z,2.80
2023-01-19T06:17:03.722Z,4.43
2023-01-19T06:22:06.682Z,6.90
2023-01-19T06:27:09.535Z,5.70
2023-01-19T06:32:12.175Z,4.95
2023-01-19T06:37:16.822Z,4.43
2023-01-19T06:47:39.317Z,4.43
2023-01-19T06:52:42.824Z,4.18
2023-01-19T06:57:45.656Z,3.08
2023-01-19T07:02:48.352Z,2.70
2023-01-19T07:07:53.656Z,4.18
2023-01-19T07:12:58.744Z,4.22
2023-01-19T07:18:05.711Z,4.13
2023-01-19T07:23:09.862Z,4.82
2023-01-19T07:28:15.747Z,6.38
2023-01-19T07:33:18.507Z,5.10
2023-01-19T07:38:21.466Z,4.28
2023-01-19T07:43:24.258Z,4.97
2023-01-19T07:48:27.735Z,5.65
2023-01-19T07:53:30.586Z,7.45
2023-01-19T07:58:33.234Z,6.68
2023-01-19T08:03:36.115Z,6.90
2023-01-19T08:08:38.861Z,6.60
2023-01-19T08:13:41.782Z,6.38
2023-01-19T08:18:44.366Z,5.50
2023-01-19T08:23:55.609Z,6.50
2023-01-19T08:29:01.060Z,6.18
2023-01-19T08:34:03.856Z,5.57
2023-01-19T08:39:06.453Z,6.70
2023-01-19T08:44:09.207Z,7.75
2023-01-19T08:49:12.316Z,6.45
2023-01-19T08:54:18.554Z,7.20
2023-01-19T08:59:22.013Z,6.22
2023-01-19T09:04:25.139Z,7.30
2023-01-19T09:09:28.899Z,7.88
2023-01-19T09:14:31.664Z,8.25
2023-01-19T09:19:36.786Z,7.38
2023-01-19T09:24:41.650Z,7.35
2023-01-19T09:29:52.350Z,7.20
2023-01-19T09:34:56.655Z,6.63
2023-01-19T09:40:00.258Z,8.23
2023-01-19T09:45:13.413Z,6.38
2023-01-19T09:50:32.055Z,7.38
2023-01-19T09:55:35.339Z,7.93
2023-01-19T10:00:53.930Z,6.65
2023-01-19T10:06:05.215Z,5.57
2023-01-19T10:11:22.947Z,7.57
2023-01-19T10:16:39.564Z,6.53
2023-01-19T10:22:27.665Z,7.80
2023-01-19T10:27:34.352Z,6.63
2023-01-19T10:32:39.215Z,7.22
2023-01-19T10:37:44.841Z,6.63
2023-01-19T10:42:47.579Z,6.95
2023-01-19T10:47:52.832Z,6.93
2023-01-19T10:52:58.745Z,6.82
2023-01-19T10:58:06.425Z,5.50
2023-01-19T11:08:36.534Z,4.45
2023-01-19T11:13:43.500Z,4.97
2023-01-19T11:18:47.649Z,5.47
2023-01-19T11:23:55.002Z,4.72
2023-01-19T11:29:01.341Z,5.40
2023-01-19T11:39:32.884Z,4.57
2023-01-19T11:44:49.220Z,4.80
2023-01-19T11:50:20.060Z,5.60
2023-01-19T12:05:53.147Z,4.35
2023-01-19T12:11:00.148Z,4.03
2023-01-19T12:16:23.481Z,3.95
2023-01-19T12:21:27.349Z,6.38
2023-01-19T12:26:53.670Z,5.80
2023-01-19T12:42:46.079Z,4.38
2023-01-19T12:47:56.770Z,3.33
2023-01-19T12:53:02.820Z,4.00
2023-01-19T12:58:17.962Z,3.83
2023-01-19T13:08:56.798Z,3.95
2023-01-19T13:19:18.437Z,9.00
2023-01-19T13:24:23.282Z,7.13
2023-01-19T13:39:54.336Z,7.15
2023-01-19T13:45:01.271Z,5.35
2023-01-19T13:50:06.432Z,5.28
2023-01-19T13:55:14.456Z,8.57
2023-01-19T14:00:22.163Z,5.43
2023-01-19T14:10:39.504Z,5.43
2023-01-19T14:15:43.385Z,4.53
2023-01-19T14:21:07.980Z,4.15
2023-01-19T14:32:13.950Z,7.53
2023-01-19T14:48:18.146Z,6.85
2023-01-19T14:53:25.726Z,5.60
2023-01-19T14:58:31.791Z,7.75
2023-01-19T15:03:49.289Z,5.85
2023-01-19T15:08:53.838Z,5.88
2023-01-19T15:13:56.926Z,4.05
2023-01-19T15:18:59.616Z,4.70
2023-01-19T15:24:02.270Z,3.83
2023-01-19T15:29:26.268Z,3.92
2023-01-19T15:34:29.107Z,3.90
2023-01-19T15:39:32.430Z,2.95
2023-01-19T15:44:34.988Z,3.10
2023-01-19T15:49:37.946Z,2.97
2023-01-19T15:54:40.498Z,3.25
2023-01-19T15:59:43.131Z,2.67
2023-01-19T16:04:49.585Z,2.85
2023-01-19T16:09:52.128Z,2.85
2023-01-19T16:14:57.147Z,2.67
2023-01-19T16:19:59.891Z,2.00
2023-01-19T16:25:02.919Z,1.70
2023-01-19T16:30:06.204Z,1.58
2023-01-19T16:35:09.009Z,2.08
2023-01-19T16:40:12.335Z,1.98
2023-01-19T16:45:15.611Z,2.70
2023-01-19T16:50:19.050Z,2.40
2023-01-19T16:55:24.279Z,1.55
2023-01-19T17:00:26.943Z,1.48
2023-01-19T17:05:29.596Z,1.90
2023-01-19T17:10:36.688Z,1.30
2023-01-19T17:15:39.600Z,1.27
2023-01-19T17:20:43.260Z,1.15
2023-01-19T17:25:55.949Z,1.50
2023-01-19T17:31:06.785Z,0.98
2023-01-19T17:36:13.432Z,1.48
2023-01-19T17:41:20.563Z,1.52
2023-01-19T17:46:25.802Z,1.63
2023-01-19T17:51:29.637Z,1.27
2023-01-19T17:56:36.745Z,1.33
2023-01-19T18:01:40.781Z,1.73
2023-01-19T18:06:43.490Z,1.60
2023-01-19T18:11:47.086Z,1.30
2023-01-19T18:16:51.248Z,2.53
2023-01-19T18:21:53.974Z,2.10
2023-01-19T18:26:58.625Z,1.77
2023-01-19T18:32:01.795Z,1.88
2023-01-19T18:37:04.790Z,1.05
2023-01-19T18:42:08.060Z,1.52
2023-01-19T18:47:13.221Z,1.67
2023-01-19T18:52:15.845Z,1.55
2023-01-19T18:57:18.451Z,1.58
2023-01-19T19:02:21.120Z,3.50
2023-01-19T19:07:24.012Z,4.45
2023-01-19T19:12:26.650Z,5.38
2023-01-19T19:17:30.511Z,8.07
2023-01-19T19:22:33.099Z,7.80
2023-01-19T19:27:37.071Z,11.68
2023-01-19T19:32:40.593Z,11.48
2023-01-19T19:37:44.363Z,12.02
2023-01-19T19:42:46.924Z,9.75
2023-01-19T19:47:51.083Z,8.10
2023-01-19T19:52:58.836Z,7.10
2023-01-19T19:58:01.867Z,5.55
2023-01-19T20:03:04.668Z,7.70
2023-01-19T20:08:07.381Z,8.73
2023-01-19T20:13:09.989Z,7.47
2023-01-19T20:18:12.784Z,6.32
2023-01-19T20:23:16.455Z,4.22
2023-01-19T20:28:19.483Z,2.50
2023-01-19T20:33:22.290Z,2.17
2023-01-19T20:38:24.884Z,1.83
2023-01-19T20:43:28.579Z,1.10
2023-01-19T20:48:31.932Z,0.93
2023-01-19T20:53:36.708Z,0.85
2023-01-19T20:58:39.901Z,1.00
2023-01-19T21:03:42.680Z,0.60
2023-01-19T21:08:45.301Z,0.60
2023-01-19T21:13:48.807Z,0.40
2023-01-19T21:19:02.124Z,0.60
2023-01-19T21:24:05.308Z,0.43
2023-01-19T21:29:13.441Z,0.38
2023-01-19T21:34:16.957Z,0.22
2023-01-19T21:39:19.544Z,0.22
2023-01-19T21:44:22.267Z,0.63
2023-01-19T21:49:24.898Z,0.50
2023-01-19T21:54:27.764Z,0.70
2023-01-19T21:59:30.354Z,0.40
2023-01-19T22:04:33.175Z,0.50
2023-01-19T22:09:36.671Z,0.50
2023-01-19T22:14:39.287Z,0.43
2023-01-19T22:19:42.027Z,0.45
2023-01-19T22:24:46.801Z,0.75
2023-01-19T22:29:49.440Z,0.63
2023-01-19T22:34:52.049Z,0.90
2023-01-19T22:39:54.883Z,0.70
2023-01-19T22:44:57.499Z,0.73
2023-01-19T22:50:00.068Z,0.80
2023-01-19T22:55:02.685Z,0.70
2023-01-19T23:00:08.785Z,0.43
2023-01-19T23:10:14.412Z,0.88
2023-01-19T23:15:16.961Z,0.95
2023-01-19T23:20:20.712Z,0.93
2023-01-19T23:25:23.300Z,0.90
2023-01-19T23:30:26.016Z,0.90
2023-01-19T23:35:28.825Z,0.77
2023-01-19T23:40:31.418Z,0.98
2023-01-19T23:45:35.444Z,0.80
2023-01-19T23:50:40.761Z,0.68
2023-01-19T23:55:43.391Z,0.75
